createdAt,value
2024-04-11T00:02:28.324Z,7.28
2024-04-11T00:05:30.065Z,5.18
2024-04-11T00:08:31.977Z,6.00
2024-04-11T00:11:33.872Z,6.25
2024-04-11T00:14:35.664Z,7.30
2024-04-11T00:17:37.563Z,5.97
2024-04-11T00:20:39.388Z,5.65
2024-04-11T00:23:41.295Z,6.03
2024-04-11T00:26:43.040Z,6.10
2024-04-11T00:29:45.053Z,6.22
2024-04-11T00:32:50.433Z,7.45
2024-04-11T00:35:53.565Z,6.57
2024-04-11T00:38:57.109Z,6.57
2024-04-11T00:41:58.862Z,6.80
2024-04-11T00:45:00.850Z,6.28
2024-04-11T00:48:03.680Z,7.50
2024-04-11T00:51:08.678Z,7.03
2024-04-11T00:54:10.732Z,6.20
2024-04-11T00:57:14.307Z,6.75
2024-04-11T01:00:16.491Z,6.38
2024-04-11T01:03:18.296Z,6.28
2024-04-11T01:06:20.629Z,6.50
2024-04-11T01:09:22.721Z,7.50
2024-04-11T01:12:25.175Z,6.03
2024-04-11T01:15:27.235Z,5.43
2024-04-11T01:18:29.054Z,5.68
2024-04-11T01:21:30.927Z,8.07
2024-04-11T01:24:33.579Z,6.27
2024-04-11T01:27:39.104Z,6.38
2024-04-11T01:30:40.997Z,7.10
2024-04-11T01:33:42.902Z,5.43
2024-04-11T01:36:46.228Z,5.32
2024-04-11T01:39:47.915Z,7.00
2024-04-11T01:42:49.775Z,7.50
2024-04-11T01:45:51.617Z,5.67
2024-04-11T01:48:53.448Z,7.00
2024-04-11T01:51:55.313Z,6.55
2024-04-11T01:55:02.455Z,5.53
2024-04-11T01:58:05.844Z,6.03
2024-04-11T02:01:11.177Z,6.37
2024-04-11T02:04:13.071Z,5.38
2024-04-11T02:07:14.864Z,7.57
2024-04-11T02:10:16.753Z,7.00
2024-04-11T02:13:18.460Z,7.50
2024-04-11T02:16:21.002Z,6.70
2024-04-11T02:19:22.886Z,6.88
2024-04-11T02:22:25.380Z,6.32
2024-04-11T02:25:27.956Z,7.65
2024-04-11T02:28:30.338Z,7.53
2024-04-11T02:31:35.826Z,5.77
2024-04-11T02:34:38.071Z,7.80
2024-04-11T02:37:41.334Z,7.32
2024-04-11T02:40:43.025Z,6.60
2024-04-11T02:43:44.710Z,6.60
2024-04-11T02:46:46.414Z,7.07
2024-04-11T02:49:48.077Z,6.97
2024-04-11T02:52:49.823Z,8.05
2024-04-11T02:55:51.425Z,5.15
2024-04-11T02:58:57.096Z,7.00
2024-04-11T03:01:58.764Z,8.20
2024-04-11T03:05:00.658Z,5.53
2024-04-11T03:08:02.668Z,6.43
2024-04-11T03:11:04.455Z,6.63
2024-04-11T03:14:08.076Z,6.22
2024-04-11T03:17:09.707Z,6.93
2024-04-11T03:20:12.052Z,6.00
2024-04-11T03:23:13.717Z,6.50
2024-04-11T03:26:16.149Z,8.32
2024-04-11T03:29:18.000Z,5.80
2024-04-11T03:32:20.951Z,6.43
2024-04-11T03:35:23.108Z,7.60
2024-04-11T03:38:30.228Z,8.50
2024-04-11T03:41:32.100Z,7.63
2024-04-11T03:44:33.974Z,6.60
2024-04-11T03:47:39.339Z,6.80
2024-04-11T03:50:41.221Z,6.75
2024-04-11T03:53:43.579Z,7.88
2024-04-11T03:56:46.031Z,7.07
2024-04-11T03:59:47.854Z,8.07
2024-04-11T04:02:49.642Z,8.17
2024-04-11T04:05:52.368Z,9.00
2024-04-11T04:08:56.371Z,7.28
2024-04-11T04:11:58.309Z,7.85
2024-04-11T04:15:00.153Z,7.13
2024-04-11T04:18:04.607Z,8.40
2024-04-11T04:21:07.882Z,7.53
2024-04-11T04:24:10.295Z,9.43
2024-04-11T04:27:12.978Z,8.57
2024-04-11T04:30:14.841Z,7.68
2024-04-11T04:33:17.710Z,8.43
2024-04-11T04:36:25.637Z,7.78
2024-04-11T04:39:32.592Z,8.02
2024-04-11T04:42:34.438Z,8.77
2024-04-11T04:45:37.816Z,9.63
2024-04-11T04:48:39.628Z,7.30
2024-04-11T04:51:43.744Z,8.05
2024-04-11T04:54:46.163Z,9.13
2024-04-11T04:57:47.750Z,8.45
2024-04-11T05:00:49.648Z,9.45
2024-04-11T05:03:51.873Z,8.13
2024-04-11T05:06:56.463Z,9.88
2024-04-11T05:09:58.542Z,10.63
2024-04-11T05:13:00.773Z,8.45
2024-04-11T05:16:03.506Z,10.25
2024-04-11T05:19:05.923Z,7.07
2024-04-11T05:22:10.399Z,11.30
2024-04-11T05:25:12.294Z,11.65
2024-04-11T05:28:15.605Z,9.00
2024-04-11T05:31:27.079Z,9.95
2024-04-11T05:34:30.889Z,10.03
2024-04-11T05:37:32.693Z,10.32
2024-04-11T05:40:35.649Z,12.60
2024-04-11T05:43:43.762Z,11.95
2024-04-11T05:46:47.171Z,10.48
2024-04-11T05:49:48.915Z,9.80
2024-04-11T05:52:50.715Z,12.00
2024-04-11T05:55:52.900Z,10.57
2024-04-11T05:58:55.143Z,10.10
2024-04-11T06:01:56.764Z,10.20
2024-04-11T06:04:58.586Z,9.37
2024-04-11T06:08:00.726Z,8.52
2024-04-11T06:11:02.428Z,8.43
2024-04-11T06:14:06.904Z,9.50
2024-04-11T06:17:09.181Z,9.40
2024-04-11T06:20:17.019Z,8.00
2024-04-11T06:23:18.725Z,8.70
2024-04-11T06:26:20.953Z,8.10
2024-04-11T06:29:25.436Z,7.97
2024-04-11T06:32:27.866Z,8.75
2024-04-11T06:35:30.494Z,8.27
2024-04-11T06:38:32.566Z,6.10
2024-04-11T06:41:34.318Z,6.88
2024-04-11T06:44:35.967Z,7.38
2024-04-11T06:47:43.398Z,5.95
2024-04-11T06:50:50.986Z,8.90
2024-04-11T06:53:53.456Z,7.80
2024-04-11T06:56:58.776Z,6.15
2024-04-11T07:00:00.432Z,5.65
2024-04-11T07:03:17.823Z,7.97
2024-04-11T07:06:22.521Z,7.57
2024-04-11T07:09:36.150Z,6.50
2024-04-11T07:12:37.817Z,5.93
2024-04-11T07:15:44.405Z,6.25
2024-04-11T07:18:46.690Z,5.75
2024-04-11T07:21:49.763Z,6.27
2024-04-11T07:24:51.911Z,8.25
2024-04-11T07:27:56.827Z,4.95
2024-04-11T07:30:59.320Z,5.93
2024-04-11T07:34:04.698Z,7.32
2024-04-11T07:37:07.448Z,6.23
2024-04-11T07:40:29.080Z,8.65
2024-04-11T07:43:32.588Z,5.50
2024-04-11T07:46:39.508Z,5.18
2024-04-11T07:49:49.274Z,4.45
2024-04-11T07:52:51.294Z,8.80
2024-04-11T07:55:55.496Z,4.03
2024-04-11T07:58:57.955Z,7.55
2024-04-11T08:02:00.101Z,5.63
2024-04-11T08:05:02.166Z,4.25
2024-04-11T08:08:05.409Z,4.70
2024-04-11T08:11:08.516Z,4.70
2024-04-11T08:14:10.175Z,5.50
2024-04-11T08:17:16.214Z,4.28
2024-04-11T08:20:21.292Z,5.25
2024-04-11T08:23:23.762Z,5.03
2024-04-11T08:26:25.618Z,3.85
2024-04-11T08:29:27.283Z,4.82
2024-04-11T08:32:29.009Z,4.82
2024-04-11T08:35:33.731Z,3.97
2024-04-11T08:38:42.597Z,4.47
2024-04-11T08:41:44.642Z,3.20
2024-04-11T08:44:47.332Z,4.25
2024-04-11T08:47:49.212Z,2.90
2024-04-11T08:50:54.402Z,5.60
2024-04-11T08:54:03.280Z,4.47
2024-04-11T08:57:09.447Z,5.30
2024-04-11T09:00:15.025Z,3.55
2024-04-11T09:03:17.022Z,4.70
2024-04-11T09:06:27.990Z,4.57
2024-04-11T09:09:31.664Z,3.53
2024-04-11T09:12:33.436Z,3.85
2024-04-11T09:15:35.040Z,3.47
2024-04-11T09:18:37.145Z,5.78
2024-04-11T09:21:46.892Z,5.33
2024-04-11T09:24:48.986Z,3.92
2024-04-11T09:28:00.044Z,6.38
2024-04-11T09:31:05.428Z,4.03
2024-04-11T09:34:13.342Z,3.72
2024-04-11T09:37:17.794Z,3.93
2024-04-11T09:40:27.503Z,3.38
2024-04-11T09:43:29.744Z,3.40
2024-04-11T09:46:35.662Z,4.38
2024-04-11T09:49:38.888Z,4.68
2024-04-11T09:52:43.277Z,4.70
2024-04-11T09:55:45.607Z,4.10
2024-04-11T09:58:47.754Z,3.55
2024-04-11T10:01:49.787Z,4.10
2024-04-11T10:05:06.162Z,3.45
2024-04-11T10:08:18.405Z,3.67
2024-04-11T10:11:21.324Z,5.60
2024-04-11T10:14:29.627Z,3.65
2024-04-11T10:17:34.015Z,4.10
2024-04-11T10:21:01.128Z,5.57
2024-04-11T10:24:43.178Z,4.80
2024-04-11T10:27:48.970Z,3.67
2024-04-11T10:30:52.891Z,3.55
2024-04-11T10:34:01.544Z,3.97
2024-04-11T10:37:09.412Z,4.63
2024-04-11T10:40:11.746Z,3.67
2024-04-11T10:43:25.549Z,3.38
2024-04-11T10:46:28.277Z,6.40
2024-04-11T10:49:30.057Z,3.65
2024-04-11T10:52:33.980Z,4.95
2024-04-11T10:55:37.453Z,3.17
2024-04-11T10:58:39.396Z,3.03
2024-04-11T11:01:49.494Z,2.97
2024-04-11T11:04:58.421Z,4.63
2024-04-11T11:08:01.310Z,2.70
2024-04-11T11:11:03.408Z,3.20
2024-04-11T11:14:05.163Z,3.70
2024-04-11T11:17:08.646Z,3.17
2024-04-11T11:20:11.694Z,4.05
2024-04-11T11:23:15.057Z,2.85
2024-04-11T11:26:23.993Z,3.87
2024-04-11T11:29:30.452Z,3.28
2024-04-11T11:32:37.163Z,3.30
2024-04-11T11:35:40.056Z,3.05
2024-04-11T11:38:42.047Z,3.78
2024-04-11T11:41:48.998Z,4.27
2024-04-11T11:45:01.161Z,4.38
2024-04-11T11:48:14.993Z,3.72
2024-04-11T11:51:21.223Z,4.43
2024-04-11T11:54:27.648Z,3.83
2024-04-11T11:57:42.580Z,3.97
2024-04-11T12:00:52.532Z,4.05
2024-04-11T12:03:58.479Z,3.33
2024-04-11T12:07:01.909Z,4.28
2024-04-11T12:10:14.294Z,3.30
2024-04-11T12:13:34.927Z,4.03
2024-04-11T12:16:43.414Z,4.32
2024-04-11T12:19:46.732Z,6.25
2024-04-11T12:22:51.263Z,4.82
2024-04-11T12:25:53.887Z,3.53
2024-04-11T12:28:57.894Z,6.10
2024-04-11T12:32:05.840Z,4.82
2024-04-11T12:35:07.734Z,4.05
2024-04-11T12:38:15.779Z,4.03
2024-04-11T12:41:19.052Z,4.47
2024-04-11T12:44:28.345Z,2.67
2024-04-11T12:47:52.769Z,3.55
2024-04-11T12:50:56.639Z,4.10
2024-04-11T12:53:58.448Z,6.18
2024-04-11T12:57:07.955Z,3.38
2024-04-11T13:00:30.597Z,3.80
2024-04-11T13:03:48.400Z,5.55
2024-04-11T13:06:53.397Z,4.43
2024-04-11T13:09:56.585Z,4.40
2024-04-11T13:12:58.910Z,4.53
2024-04-11T13:16:11.760Z,3.83
2024-04-11T13:19:20.480Z,5.90
2024-04-11T13:22:22.272Z,4.32
2024-04-11T13:25:27.929Z,3.22
2024-04-11T13:28:32.661Z,3.80
2024-04-11T13:31:36.017Z,3.60
2024-04-11T13:34:41.688Z,4.65
2024-04-11T13:37:44.213Z,4.05
2024-04-11T13:41:07.092Z,4.22
2024-04-11T13:44:17.662Z,4.07
2024-04-11T13:47:23.567Z,3.23
2024-04-11T13:50:39.051Z,4.35
2024-04-11T13:53:45.842Z,3.80
2024-04-11T13:57:00.972Z,4.45
2024-04-11T14:00:11.025Z,3.17
2024-04-11T14:03:25.042Z,4.13
2024-04-11T14:06:29.039Z,5.18
2024-04-11T14:09:34.362Z,7.28
2024-04-11T14:12:37.461Z,4.30
2024-04-11T14:15:39.204Z,2.42
2024-04-11T14:18:50.783Z,2.27
2024-04-11T14:22:09.258Z,3.13
2024-04-11T14:25:11.069Z,3.55
2024-04-11T14:28:19.086Z,3.75
2024-04-11T14:31:32.095Z,4.65
2024-04-11T14:34:52.682Z,3.67
2024-04-11T14:38:05.192Z,2.92
2024-04-11T14:41:07.128Z,3.55
2024-04-11T14:44:10.837Z,3.45
2024-04-11T14:47:20.788Z,4.03
2024-04-11T14:50:22.628Z,3.10
2024-04-11T14:53:25.563Z,1.80
2024-04-11T14:56:40.664Z,3.55
2024-04-11T14:59:50.595Z,2.95
2024-04-11T15:02:52.481Z,3.58
2024-04-11T15:05:54.354Z,4.67
2024-04-11T15:09:00.483Z,2.92
2024-04-11T15:12:11.359Z,4.20
2024-04-11T15:15:24.156Z,3.58
2024-04-11T15:18:29.882Z,3.15
2024-04-11T15:21:45.909Z,3.37
2024-04-11T15:24:51.159Z,3.05
2024-04-11T15:27:58.116Z,4.50
2024-04-11T15:30:59.794Z,3.13
2024-04-11T15:34:11.521Z,3.00
2024-04-11T15:37:29.789Z,4.97
2024-04-11T15:40:32.157Z,3.65
2024-04-11T15:43:41.215Z,3.08
2024-04-11T15:46:46.178Z,6.10
2024-04-11T15:49:52.625Z,3.88
2024-04-11T15:52:54.874Z,5.73
2024-04-11T15:55:59.238Z,4.78
2024-04-11T15:59:11.632Z,3.92
2024-04-11T16:02:33.610Z,3.32
2024-04-11T16:05:36.245Z,3.95
2024-04-11T16:08:43.831Z,2.97
2024-04-11T16:11:47.286Z,3.50
2024-04-11T16:14:49.655Z,5.88
2024-04-11T16:17:51.694Z,5.45
2024-04-11T16:21:00.954Z,4.25
2024-04-11T16:24:03.254Z,3.85
2024-04-11T16:27:05.784Z,3.57
2024-04-11T16:30:13.167Z,3.58
2024-04-11T16:33:18.844Z,3.97
2024-04-11T16:36:20.794Z,3.08
2024-04-11T16:39:32.236Z,5.32
2024-04-11T16:42:38.025Z,4.07
2024-04-11T16:45:43.035Z,3.65
2024-04-11T16:48:44.845Z,3.80
2024-04-11T16:51:51.102Z,3.03
2024-04-11T16:55:02.480Z,2.58
2024-04-11T16:58:07.368Z,3.93
2024-04-11T17:01:09.263Z,2.75
2024-04-11T17:04:11.306Z,5.00
2024-04-11T17:07:42.183Z,2.47
2024-04-11T17:10:46.387Z,3.45
2024-04-11T17:13:55.800Z,4.23
2024-04-11T17:17:16.175Z,2.70
2024-04-11T17:20:21.350Z,2.67
2024-04-11T17:23:23.211Z,4.85
2024-04-11T17:26:25.921Z,3.38
2024-04-11T17:29:46.549Z,5.30
2024-04-11T17:32:48.278Z,2.13
2024-04-11T17:35:59.299Z,2.65
2024-04-11T17:39:06.945Z,3.20
2024-04-11T17:42:15.267Z,2.70
2024-04-11T17:45:17.445Z,2.30
2024-04-11T17:48:19.418Z,2.80
2024-04-11T17:51:21.072Z,3.00
2024-04-11T17:54:23.618Z,4.63
2024-04-11T17:57:25.642Z,3.30
2024-04-11T18:00:38.979Z,3.17
2024-04-11T18:03:41.301Z,4.57
2024-04-11T18:06:48.638Z,3.00
2024-04-11T18:09:54.831Z,3.47
2024-04-11T18:12:56.941Z,3.43
2024-04-11T18:16:13.581Z,5.17
2024-04-11T18:19:17.223Z,4.80
2024-04-11T18:22:24.924Z,4.32
2024-04-11T18:25:30.758Z,4.78
2024-04-11T18:28:34.751Z,3.87
2024-04-11T18:31:42.874Z,3.00
2024-04-11T18:34:47.539Z,5.82
2024-04-11T18:37:55.679Z,5.63
2024-04-11T18:41:12.499Z,6.05
2024-04-11T18:44:21.103Z,4.90
2024-04-11T18:47:38.647Z,4.80
2024-04-11T18:50:40.569Z,4.90
2024-04-11T18:53:43.388Z,6.10
2024-04-11T18:56:50.448Z,4.60
2024-04-11T18:59:53.324Z,5.10
2024-04-11T19:02:55.393Z,4.53
2024-04-11T19:06:06.536Z,5.88
2024-04-11T19:09:12.850Z,8.30
2024-04-11T19:12:14.879Z,4.60
2024-04-11T19:15:17.698Z,7.40
2024-04-11T19:18:26.459Z,4.40
2024-04-11T19:21:28.578Z,5.93
2024-04-11T19:24:30.522Z,6.85
2024-04-11T19:27:34.543Z,7.18
2024-04-11T19:30:38.725Z,7.63
2024-04-11T19:33:45.576Z,6.90
2024-04-11T19:36:49.624Z,6.60
2024-04-11T19:39:53.173Z,7.13
2024-04-11T19:42:55.837Z,4.80
2024-04-11T19:45:57.936Z,5.57
2024-04-11T19:48:59.920Z,3.70
2024-04-11T19:52:01.840Z,3.50
2024-04-11T19:55:10.444Z,3.67
2024-04-11T19:58:12.762Z,5.13
2024-04-11T20:01:14.460Z,3.80
2024-04-11T20:04:38.525Z,4.07
2024-04-11T20:07:41.953Z,5.03
2024-04-11T20:10:51.026Z,5.00
2024-04-11T20:13:55.441Z,8.73
2024-04-11T20:16:59.765Z,9.33
2024-04-11T20:20:03.252Z,6.07
2024-04-11T20:23:10.795Z,4.18
2024-04-11T20:26:18.366Z,3.67
2024-04-11T20:29:21.736Z,5.18
2024-04-11T20:32:25.637Z,5.77
2024-04-11T20:35:30.236Z,6.80
2024-04-11T20:38:37.951Z,4.88
2024-04-11T20:41:43.302Z,3.72
2024-04-11T20:44:55.637Z,5.38
2024-04-11T20:48:17.394Z,6.73
2024-04-11T20:51:38.091Z,6.73
2024-04-11T20:55:12.236Z,3.90
2024-04-11T20:58:32.493Z,4.25
2024-04-11T21:01:52.548Z,5.57
2024-04-11T21:05:12.911Z,4.77
2024-04-11T21:08:33.251Z,4.93
2024-04-11T21:11:53.928Z,4.53
2024-04-11T21:15:14.586Z,5.65
2024-04-11T21:18:35.583Z,4.40
2024-04-11T21:21:56.087Z,4.87
2024-04-11T21:25:16.436Z,5.57
2024-04-11T21:28:37.015Z,4.53
2024-04-11T21:31:57.432Z,3.58
2024-04-11T21:35:01.242Z,4.57
2024-04-11T21:38:04.680Z,4.77
2024-04-11T21:41:24.659Z,5.43
2024-04-11T21:44:27.776Z,4.32
2024-04-11T21:47:29.536Z,4.13
2024-04-11T21:50:37.912Z,3.88
2024-04-11T21:53:41.675Z,5.17
2024-04-11T21:56:43.621Z,3.87
2024-04-11T21:59:45.686Z,3.75
2024-04-11T22:02:49.335Z,4.47
2024-04-11T22:05:53.222Z,3.72
2024-04-11T22:08:56.307Z,3.60
2024-04-11T22:12:01.523Z,3.97
2024-04-11T22:15:05.497Z,3.95
2024-04-11T22:18:27.742Z,4.28
2024-04-11T22:21:34.786Z,3.15
2024-04-11T22:24:38.194Z,4.17
2024-04-11T22:27:40.064Z,4.78
2024-04-11T22:30:44.540Z,2.83
2024-04-11T22:33:52.759Z,5.47
2024-04-11T22:36:55.093Z,3.72
2024-04-11T22:40:03.954Z,4.43
2024-04-11T22:43:05.996Z,2.77
2024-04-11T22:46:07.742Z,4.15
2024-04-11T22:49:15.841Z,3.90
2024-04-11T22:52:25.910Z,4.43
2024-04-11T22:55:28.171Z,3.27
2024-04-11T22:58:33.142Z,4.40
2024-04-11T23:01:39.779Z,4.53
2024-04-11T23:05:02.869Z,3.50
2024-04-11T23:08:07.677Z,4.95
2024-04-11T23:11:13.562Z,4.70
2024-04-11T23:14:17.945Z,4.03
2024-04-11T23:20:44.399Z,3.80
2024-04-11T23:23:46.820Z,5.68
2024-04-11T23:26:51.243Z,4.73
2024-04-11T23:29:56.713Z,5.70
2024-04-11T23:32:59.400Z,5.47
2024-04-11T23:36:07.516Z,4.30
2024-04-11T23:39:10.896Z,6.32
2024-04-11T23:42:25.451Z,5.50
2024-04-11T23:45:30.866Z,4.80
2024-04-11T23:48:41.125Z,4.30
2024-04-11T23:51:48.331Z,4.18
2024-04-11T23:54:53.469Z,4.32
2024-04-11T23:58:03.987Z,5.30
